createdAt,value
2019-03-12T00:04:35.151Z,3.67
2019-03-12T00:09:36.748Z,3.68
2019-03-12T00:14:38.427Z,3.65
2019-03-12T00:19:40.013Z,3.63
2019-03-12T00:24:41.581Z,3.62
2019-03-12T00:29:43.119Z,3.62
2019-03-12T00:34:44.756Z,3.61
2019-03-12T00:39:46.357Z,3.62
2019-03-12T00:44:48.058Z,3.60
2019-03-12T00:49:49.636Z,3.60
2019-03-12T00:54:51.319Z,3.61
2019-03-12T00:59:56.169Z,3.60
2019-03-12T01:04:56.367Z,3.60
2019-03-12T01:09:57.928Z,3.60
2019-03-12T01:14:59.584Z,3.60
2019-03-12T01:20:01.258Z,3.60
2019-03-12T01:25:05.285Z,3.58
2019-03-12T01:30:09.231Z,3.58
2019-03-12T01:35:11.033Z,3.60
2019-03-12T01:40:12.868Z,3.59
2019-03-12T01:45:14.533Z,3.56
2019-03-12T01:50:16.196Z,3.53
2019-03-12T01:55:17.762Z,3.55
2019-03-12T02:00:19.644Z,3.55
2019-03-12T02:05:21.306Z,3.57
2019-03-12T02:10:22.887Z,3.56
2019-03-12T02:15:24.460Z,3.57
2019-03-12T02:20:26.017Z,3.59
2019-03-12T02:25:27.587Z,3.59
2019-03-12T02:30:29.378Z,3.55
2019-03-12T02:35:31.050Z,3.55
2019-03-12T02:40:32.607Z,3.55
2019-03-12T02:45:34.285Z,3.53
2019-03-12T02:50:35.885Z,3.54
2019-03-12T02:55:37.418Z,3.57
2019-03-12T03:00:38.981Z,3.59
2019-03-12T03:05:59.033Z,3.58
2019-03-12T03:11:00.580Z,3.57
2019-03-12T03:16:02.245Z,3.55
2019-03-12T03:21:03.966Z,3.54
2019-03-12T03:26:05.545Z,3.58
2019-03-12T03:31:07.120Z,3.61
2019-03-12T03:36:08.877Z,3.64
2019-03-12T03:41:10.442Z,3.69
2019-03-12T03:46:11.990Z,3.71
2019-03-12T03:51:13.719Z,3.70
2019-03-12T03:56:15.508Z,3.65
2019-03-12T04:01:17.078Z,3.70
2019-03-12T04:06:18.871Z,3.69
2019-03-12T04:11:20.423Z,3.63
2019-03-12T04:16:22.114Z,3.62
2019-03-12T04:21:23.677Z,3.63
2019-03-12T04:26:25.259Z,3.66
2019-03-12T04:31:26.940Z,3.69
2019-03-12T04:36:28.506Z,3.71
2019-03-12T04:41:30.072Z,3.71
2019-03-12T04:46:31.755Z,3.69
2019-03-12T04:51:33.676Z,3.68
2019-03-12T04:56:35.347Z,3.66
2019-03-12T05:01:36.938Z,3.65
2019-03-12T05:06:38.503Z,3.62
2019-03-12T05:11:40.199Z,3.61
2019-03-12T05:16:41.875Z,3.62
2019-03-12T05:21:45.000Z,3.61
2019-03-12T05:26:46.819Z,3.64
2019-03-12T05:31:48.419Z,3.66
2019-03-12T05:36:49.983Z,3.69
2019-03-12T05:41:51.533Z,3.68
2019-03-12T05:46:53.083Z,3.69
2019-03-12T05:51:54.663Z,3.73
2019-03-12T05:56:56.331Z,3.73
2019-03-12T06:01:58.020Z,3.73
2019-03-12T06:06:59.730Z,3.72
2019-03-12T06:12:01.392Z,3.73
2019-03-12T06:17:03.065Z,3.72
2019-03-12T06:22:04.709Z,3.68
2019-03-12T06:27:06.312Z,3.71
2019-03-12T06:32:26.056Z,3.68
2019-03-12T06:37:51.811Z,3.70
2019-03-12T06:43:06.820Z,3.70
2019-03-12T06:48:28.053Z,3.71
2019-03-12T06:53:44.447Z,3.73
2019-03-12T06:59:06.059Z,3.73
2019-03-12T07:04:17.295Z,3.75
2019-03-12T07:09:37.175Z,3.74
2019-03-12T07:14:45.002Z,3.80
2019-03-12T07:19:55.803Z,3.85
2019-03-12T07:25:11.192Z,3.93
2019-03-12T07:30:31.443Z,3.98
2019-03-12T07:35:43.301Z,4.07
2019-03-12T07:41:24.865Z,4.12
2019-03-12T07:46:31.813Z,4.18
2019-03-12T07:51:43.888Z,4.28
2019-03-12T07:57:04.256Z,4.34
2019-03-12T08:02:25.735Z,4.38
2019-03-12T08:07:39.817Z,4.48
2019-03-12T08:12:59.788Z,4.57
2019-03-12T08:18:24.434Z,4.59
2019-03-12T08:23:33.543Z,4.64
2019-03-12T08:29:06.748Z,4.67
2019-03-12T08:34:27.949Z,4.75
2019-03-12T08:39:48.344Z,4.82
2019-03-12T08:45:15.450Z,4.92
2019-03-12T08:50:21.365Z,4.92
2019-03-12T08:55:42.874Z,4.97
2019-03-12T09:01:00.662Z,4.93
2019-03-12T09:06:27.765Z,4.94
2019-03-12T09:12:01.053Z,5.17
2019-03-12T09:17:20.908Z,5.38
2019-03-12T09:22:48.383Z,5.59
2019-03-12T09:28:19.767Z,5.64
2019-03-12T09:33:35.395Z,5.65
2019-03-12T09:38:44.452Z,5.79
2019-03-12T09:44:05.703Z,5.81
2019-03-12T09:49:15.944Z,5.91
2019-03-12T09:54:43.003Z,6.01
2019-03-12T10:00:15.304Z,5.94
2019-03-12T10:05:24.363Z,5.99
2019-03-12T10:10:33.296Z,6.04
2019-03-12T10:15:53.392Z,6.15
2019-03-12T10:21:17.194Z,6.13
2019-03-12T10:26:37.115Z,6.24
2019-03-12T10:31:49.196Z,6.35
2019-03-12T10:37:11.866Z,6.39
2019-03-12T10:42:17.647Z,6.43
2019-03-12T10:47:21.190Z,6.47
2019-03-12T10:52:22.961Z,6.53
2019-03-12T10:57:24.578Z,6.58
2019-03-12T11:02:26.146Z,6.69
2019-03-12T11:07:27.701Z,6.71
2019-03-12T11:12:29.309Z,7.00
2019-03-12T11:17:30.997Z,7.19
2019-03-12T11:22:32.669Z,7.35
2019-03-12T11:27:34.396Z,7.34
2019-03-12T11:32:36.063Z,7.56
2019-03-12T11:37:37.859Z,8.00
2019-03-12T11:42:39.479Z,9.66
2019-03-12T11:47:41.076Z,11.71
2019-03-12T11:52:52.614Z,12.86
2019-03-12T11:57:46.353Z,13.25
2019-03-12T12:02:59.263Z,13.26
2019-03-12T12:07:51.770Z,11.37
2019-03-12T12:12:53.718Z,10.80
2019-03-12T12:17:55.300Z,12.56
2019-03-12T12:22:56.992Z,13.79
2019-03-12T12:27:58.773Z,12.26
2019-03-12T12:33:00.502Z,13.64
2019-03-12T12:38:02.248Z,14.11
2019-03-12T12:43:03.988Z,14.39
2019-03-12T12:48:05.672Z,13.05
2019-03-12T12:53:07.239Z,11.79
2019-03-12T12:58:08.807Z,10.91
2019-03-12T13:03:10.492Z,10.40
2019-03-12T13:08:12.222Z,10.04
2019-03-12T13:13:13.894Z,9.86
2019-03-12T13:18:16.710Z,10.11
2019-03-12T13:23:18.648Z,10.50
2019-03-12T13:28:20.248Z,10.57
2019-03-12T13:33:21.914Z,11.29
2019-03-12T13:38:23.588Z,11.71
2019-03-12T13:43:25.201Z,12.30
2019-03-12T13:48:26.978Z,13.13
2019-03-12T13:53:28.679Z,13.54
2019-03-12T13:58:30.285Z,12.90
2019-03-12T14:03:31.877Z,12.15
2019-03-12T14:08:33.593Z,11.97
2019-03-12T14:13:35.341Z,12.09
2019-03-12T14:18:37.143Z,11.42
2019-03-12T14:24:02.422Z,11.01
2019-03-12T14:29:04.108Z,10.82
2019-03-12T14:34:05.786Z,10.70
2019-03-12T14:39:07.760Z,10.70
2019-03-12T14:44:09.363Z,10.99
2019-03-12T14:49:11.013Z,11.05
2019-03-12T14:54:12.714Z,11.03
2019-03-12T14:59:14.270Z,10.70
2019-03-12T15:04:15.922Z,10.49
2019-03-12T15:09:17.578Z,10.35
2019-03-12T15:14:19.142Z,10.36
2019-03-12T15:19:20.727Z,10.40
2019-03-12T15:24:22.309Z,10.56
2019-03-12T15:29:23.981Z,10.52
2019-03-12T15:34:25.602Z,10.23
2019-03-12T15:39:27.186Z,9.93
2019-03-12T15:44:28.775Z,9.65
2019-03-12T15:49:30.343Z,9.53
2019-03-12T15:54:31.903Z,9.45
2019-03-12T15:59:33.588Z,9.41
2019-03-12T16:04:35.365Z,9.36
2019-03-12T16:09:36.973Z,9.28
2019-03-12T16:14:38.538Z,9.20
2019-03-12T16:19:40.385Z,9.17
2019-03-12T16:24:42.137Z,9.15
2019-03-12T16:29:43.837Z,9.10
2019-03-12T16:34:45.388Z,9.06
2019-03-12T16:39:46.953Z,8.99
2019-03-12T16:44:48.607Z,8.93
2019-03-12T16:49:50.775Z,8.90
2019-03-12T16:54:52.365Z,8.83
2019-03-12T16:59:53.995Z,8.82
2019-03-12T17:04:55.739Z,8.78
2019-03-12T17:09:57.536Z,8.76
2019-03-12T17:14:59.169Z,8.72
2019-03-12T17:20:00.885Z,8.72
2019-03-12T17:25:03.288Z,8.67
2019-03-12T17:30:07.732Z,8.63
2019-03-12T17:35:13.429Z,8.63
2019-03-12T17:40:17.002Z,8.64
2019-03-12T17:45:18.810Z,8.63
2019-03-12T17:50:21.811Z,8.59
2019-03-12T17:55:23.551Z,8.58
2019-03-12T18:00:28.271Z,8.53
2019-03-12T18:05:30.194Z,8.52
2019-03-12T18:10:31.976Z,8.49
2019-03-12T18:15:33.706Z,8.44
2019-03-12T18:20:35.278Z,8.43
2019-03-12T18:25:36.878Z,8.42
2019-03-12T18:30:38.701Z,8.41
2019-03-12T18:35:40.357Z,8.39
2019-03-12T18:40:42.102Z,8.36
2019-03-12T18:45:43.711Z,8.33
2019-03-12T18:50:45.279Z,8.32
2019-03-12T18:56:01.763Z,8.34
2019-03-12T19:01:06.746Z,8.34
2019-03-12T19:06:10.079Z,8.37
2019-03-12T19:11:11.956Z,8.36
2019-03-12T19:16:13.718Z,8.35
2019-03-12T19:21:15.297Z,8.36
2019-03-12T19:26:16.975Z,8.37
2019-03-12T19:31:50.558Z,8.36
2019-03-12T19:36:52.164Z,8.35
2019-03-12T19:41:54.570Z,8.33
2019-03-12T19:46:56.284Z,8.28
2019-03-12T19:51:57.974Z,8.25
2019-03-12T19:56:59.664Z,8.24
2019-03-12T20:02:02.487Z,8.24
2019-03-12T20:07:06.722Z,8.22
2019-03-12T20:12:56.581Z,8.24
2019-03-12T20:18:46.776Z,8.25
2019-03-12T20:24:35.969Z,8.29
2019-03-12T20:30:25.430Z,8.28
2019-03-12T20:36:24.761Z,8.29
2019-03-12T20:42:03.052Z,8.28
2019-03-12T20:47:34.353Z,8.28
2019-03-12T20:53:23.094Z,8.26
2019-03-12T20:59:05.472Z,8.27
2019-03-12T21:05:00.468Z,8.26
2019-03-12T21:10:34.904Z,8.28
2019-03-12T21:16:04.312Z,8.29
2019-03-12T21:21:44.098Z,8.30
2019-03-12T21:26:59.242Z,8.31
2019-03-12T21:32:00.900Z,8.30
2019-03-12T21:37:02.666Z,8.32
2019-03-12T21:42:05.171Z,8.32
2019-03-12T21:47:06.915Z,8.32
2019-03-12T21:52:08.682Z,8.32
2019-03-12T21:57:10.616Z,8.32
2019-03-12T22:02:12.352Z,8.34
2019-03-12T22:07:13.993Z,8.36
2019-03-12T22:12:15.792Z,8.41
2019-03-12T22:17:17.388Z,8.41
2019-03-12T22:22:30.081Z,8.38
2019-03-12T22:27:31.797Z,8.37
2019-03-12T22:32:33.380Z,8.35
2019-03-12T22:37:35.056Z,8.35
2019-03-12T22:42:36.716Z,8.37
2019-03-12T22:47:38.526Z,8.40
2019-03-12T22:52:40.200Z,8.42
2019-03-12T22:57:41.952Z,8.44
2019-03-12T23:02:43.580Z,8.44
2019-03-12T23:07:45.295Z,8.44
2019-03-12T23:12:47.245Z,8.43
2019-03-12T23:17:48.914Z,8.42
2019-03-12T23:22:52.339Z,8.41
2019-03-12T23:27:54.470Z,8.42
2019-03-12T23:32:56.174Z,8.40
2019-03-12T23:37:57.781Z,8.39
2019-03-12T23:42:59.476Z,8.37
2019-03-12T23:48:01.176Z,8.38
2019-03-12T23:53:03.166Z,8.37
2019-03-12T23:58:04.868Z,8.37
